Time;durP1;ratioP1;P1;durP2;ratioP2;P2;SDS_P1;SDS_P2;PMS_P1;PMS_P2;Temp;Humidity;BMP_temperature;BMP_pressure;BME280_temperature;BME280_humidity;BME280_pressure;Samples;Min_cycle;Max_cycle;Signal;HPM_P1;HPM_P2
2023/10/20 00:07:53;;;;;;;645.85;18.67;;;11.90;99.90;;;;;;25314838;23;20010;-60
2023/10/20 00:17:55;;;;;;;364.30;12.30;;;11.90;99.90;;;;;;25340662;23;20325;-59
2023/10/20 00:27:57;;;;;;;134.63;5.85;;;11.90;99.90;;;;;;25340064;23;20501;-59
2023/10/20 00:37:59;;;;;;;158.32;5.22;;;12.00;99.90;;;;;;25339919;23;20010;-54
2023/10/20 00:48:01;;;;;;;234.00;8.50;;;11.90;99.90;;;;;;25339603;23;20006;-55
2023/10/20 00:58:04;;;;;;;198.95;6.68;;;11.90;99.90;;;;;;25339283;23;20014;-59
2023/10/20 01:08:06;;;;;;;117.80;4.00;;;11.90;99.90;;;;;;25338923;23;20478;-54
2023/10/20 01:18:09;;;;;;;8.55;2.80;;;11.90;99.90;;;;;;25338718;23;20006;-60
2023/10/20 01:28:12;;;;;;;8.57;2.50;;;12.00;99.90;;;;;;25312366;23;20442;-54
2023/10/20 01:38:14;;;;;;;12.93;3.80;;;12.10;99.90;;;;;;25312362;23;20009;-54
2023/10/20 01:48:16;;;;;;;794.40;26.88;;;12.10;99.90;;;;;;25338307;23;20009;-55
2023/10/20 01:58:21;;;;;;;659.90;26.13;;;12.20;99.90;;;;;;25337625;23;20342;-54
2023/10/20 02:08:23;;;;;;;61.38;8.05;;;12.20;99.90;;;;;;25180172;23;20010;-53
2023/10/20 02:18:25;;;;;;;11.05;6.20;;;12.30;99.90;;;;;;25180340;23;20466;-54
2023/10/20 02:28:27;;;;;;;10.63;4.65;;;12.30;99.90;;;;;;25209318;23;20010;-60
2023/10/20 02:38:28;;;;;;;21.33;5.50;;;12.30;99.90;;;;;;25206211;23;20442;-60
2023/10/20 02:48:30;;;;;;;27.48;4.90;;;12.20;99.90;;;;;;25344482;23;20066;-60
2023/10/20 02:58:33;;;;;;;11.88;4.55;;;12.30;99.90;;;;;;25344231;23;20060;-55
2023/10/20 03:08:37;;;;;;;19.48;6.60;;;12.30;99.90;;;;;;25343408;23;20017;-53
2023/10/20 03:18:40;;;;;;;17.58;6.40;;;12.30;99.90;;;;;;25342573;23;20010;-59
2023/10/20 03:28:42;;;;;;;18.63;6.38;;;12.30;99.90;;;;;;25341977;23;20005;-59
2023/10/20 03:38:43;;;;;;;13.45;4.93;;;12.30;99.90;;;;;;25340903;23;20017;-58
2023/10/20 03:48:45;;;;;;;12.70;5.32;;;12.30;99.90;;;;;;25315095;23;20010;-58
2023/10/20 03:58:47;;;;;;;16.98;5.10;;;12.20;99.90;;;;;;25314342;23;20022;-58
2023/10/20 04:08:49;;;;;;;50.80;7.90;;;12.20;99.90;;;;;;25340297;23;20042;-55
2023/10/20 04:18:50;;;;;;;18.40;7.13;;;12.20;99.90;;;;;;25339932;23;20006;-54
2023/10/20 04:29:23;;;;;;;11.05;4.00;;;12.10;99.90;;;;;;25339594;23;20005;-53
2023/10/20 05:10:12;;;;;;;23.55;8.43;;;12.00;99.90;;;;;;25339569;23;20009;-59
2023/10/20 05:20:15;;;;;;;14.63;7.50;;;12.00;99.90;;;;;;25338137;23;20006;-54
2023/10/20 05:30:17;;;;;;;15.50;7.55;;;12.00;99.90;;;;;;25337997;23;20005;-54
2023/10/20 05:40:19;;;;;;;13.80;6.25;;;11.90;99.90;;;;;;25337435;23;20010;-55
2023/10/20 05:50:21;;;;;;;9.55;5.55;;;11.80;99.90;;;;;;25337595;23;20013;-59
2023/10/20 06:00:23;;;;;;;8.15;2.95;;;11.70;99.90;;;;;;25339846;23;20009;-54
2023/10/20 06:10:24;;;;;;;9.68;3.13;;;11.70;99.90;;;;;;25344633;23;20006;-54
2023/10/20 06:20:28;;;;;;;9.23;2.80;;;11.60;99.90;;;;;;25343954;23;20077;-54
2023/10/20 06:30:30;;;;;;;11.85;3.65;;;11.60;99.90;;;;;;25344038;23;20074;-54
2023/10/20 06:40:32;;;;;;;11.88;2.95;;;11.70;99.90;;;;;;25343366;23;20072;-60
2023/10/20 06:50:34;;;;;;;7.53;2.60;;;11.90;99.90;;;;;;25343750;23;20064;-59
2023/10/20 07:00:36;;;;;;;9.23;3.45;;;11.90;99.90;;;;;;25343070;23;20022;-52
2023/10/20 07:10:38;;;;;;;13.77;3.80;;;11.90;99.90;;;;;;25341609;23;20006;-52
2023/10/20 07:20:40;;;;;;;10.88;3.97;;;11.80;99.90;;;;;;25343253;23;20006;-59
2023/10/20 07:30:41;;;;;;;9.60;4.32;;;11.80;99.90;;;;;;25342097;23;20006;-58
2023/10/20 07:40:43;;;;;;;11.23;4.20;;;11.90;99.90;;;;;;25341662;23;20038;-58
2023/10/20 07:50:45;;;;;;;10.70;4.53;;;11.90;99.90;;;;;;25341213;23;20002;-58
2023/10/20 08:00:47;;;;;;;16.70;5.53;;;11.80;99.90;;;;;;25340706;23;20010;-58
2023/10/20 08:10:49;;;;;;;10.90;5.57;;;11.80;99.90;;;;;;25340517;23;20131;-58
2023/10/20 08:20:52;;;;;;;14.82;6.05;;;11.90;99.90;;;;;;25339385;23;20009;-54
2023/10/20 08:31:19;;;;;;;15.70;6.60;;;11.90;99.90;;;;;;25339799;23;20057;-54
2023/10/20 08:41:22;;;;;;;15.38;6.72;;;12.10;99.90;;;;;;25379262;23;20083;-58
2023/10/20 08:51:25;;;;;;;18.50;7.75;;;12.20;99.90;;;;;;25338988;23;20002;-55
2023/10/20 09:01:27;;;;;;;21.13;8.95;;;12.20;99.90;;;;;;25338867;23;20458;-57
2023/10/20 09:11:31;;;;;;;20.58;9.88;;;12.30;99.90;;;;;;25339099;23;20085;-54
2023/10/20 09:21:33;;;;;;;18.95;8.30;;;12.30;99.90;;;;;;25338197;23;20030;-50
2023/10/20 09:31:38;;;;;;;26.70;9.35;;;12.30;99.90;;;;;;25338849;23;20382;-52
2023/10/20 09:41:44;;;;;;;19.20;8.60;;;12.30;99.90;;;;;;25345977;23;20029;-53
2023/10/20 09:51:49;;;;;;;25.67;10.15;;;12.30;99.90;;;;;;25386416;23;20013;-59
2023/10/20 10:01:56;;;;;;;25.88;8.90;;;12.40;99.90;;;;;;25345791;23;20512;-54
2023/10/20 10:11:58;;;;;;;24.92;7.65;;;12.50;99.90;;;;;;25385705;23;20021;-52
2023/10/20 10:22:02;;;;;;;21.63;7.10;;;12.60;99.90;;;;;;25346536;23;20722;-59
2023/10/20 10:32:12;;;;;;;16.23;7.70;;;12.50;99.90;;;;;;25318626;23;20010;-59
2023/10/20 10:42:14;;;;;;;24.52;7.50;;;12.50;99.90;;;;;;25359687;23;20013;-53
2023/10/20 10:52:16;;;;;;;20.00;7.28;;;12.50;99.90;;;;;;25343498;23;20060;-52
2023/10/20 11:02:27;;;;;;;21.35;7.65;;;12.50;99.90;;;;;;25343081;23;20029;-52
2023/10/20 11:12:30;;;;;;;21.90;7.68;;;12.50;99.90;;;;;;25383130;23;20461;-52
2023/10/20 11:22:37;;;;;;;23.73;8.57;;;12.50;99.90;;;;;;25342244;23;20005;-58
2023/10/20 11:32:40;;;;;;;20.98;7.25;;;12.50;99.90;;;;;;25382597;23;20082;-49
2023/10/20 11:42:42;;;;;;;13.02;5.13;;;12.40;99.90;;;;;;25341433;23;20013;-49
2023/10/20 11:52:43;;;;;;;21.85;8.05;;;12.60;99.90;;;;;;25341506;23;20017;-56
2023/10/20 12:02:45;;;;;;;24.75;9.02;;;12.50;99.90;;;;;;25381213;23;20087;-56
2023/10/20 12:12:47;;;;;;;24.05;9.70;;;12.60;99.90;;;;;;25340142;23;20087;-50
2023/10/20 12:22:54;;;;;;;157.35;12.10;;;12.60;99.90;;;;;;25341379;23;20006;-52
2023/10/20 12:32:56;;;;;;;16.60;7.65;;;12.60;99.90;;;;;;25380119;23;20014;-58
2023/10/20 12:42:58;;;;;;;21.45;8.43;;;12.60;99.90;;;;;;25339272;23;20002;-57
2023/10/20 12:53:00;;;;;;;22.90;7.57;;;12.70;99.90;;;;;;25339046;23;20032;-57
2023/10/20 13:03:02;;;;;;;13.63;7.07;;;12.60;99.90;;;;;;25339236;23;20029;-49
2023/10/20 13:13:05;;;;;;;13.95;6.28;;;12.60;99.90;;;;;;25338440;23;20006;-48
2023/10/20 13:23:06;;;;;;;23.00;7.07;;;12.70;99.90;;;;;;25338181;23;20006;-57
2023/10/20 13:33:12;;;;;;;232.20;12.43;;;12.80;99.90;;;;;;25337857;23;20446;-51
2023/10/20 13:43:14;;;;;;;485.63;17.42;;;12.80;99.90;;;;;;25378091;23;20049;-54
2023/10/20 13:53:16;;;;;;;538.28;19.17;;;12.80;99.90;;;;;;25337830;23;20076;-59
2023/10/20 14:03:21;;;;;;;562.58;29.83;;;13.00;99.90;;;;;;25337571;23;20029;-59
2023/10/20 14:13:22;;;;;;;43.47;11.43;;;13.00;99.90;;;;;;25337294;23;20010;-50
2023/10/20 14:23:28;;;;;;;20.60;7.93;;;13.10;99.90;;;;;;25314814;23;20010;-60
2023/10/20 14:33:30;;;;;;;23.00;9.50;;;13.00;99.90;;;;;;25318216;23;20013;-53
2023/10/20 14:43:35;;;;;;;705.70;35.25;;;12.90;99.90;;;;;;25343388;23;20006;-60
2023/10/20 14:53:37;;;;;;;71.22;13.05;;;12.80;99.90;;;;;;25343025;23;20014;-59
2023/10/20 15:03:39;;;;;;;19.10;6.63;;;12.80;99.90;;;;;;25343243;23;20014;-48
2023/10/20 15:13:41;;;;;;;19.42;6.05;;;12.70;99.90;;;;;;25342594;23;20013;-52
2023/10/20 15:23:43;;;;;;;18.05;4.95;;;12.60;99.90;;;;;;25343856;23;20010;-59
2023/10/20 15:33:44;;;;;;;19.50;5.97;;;12.60;99.90;;;;;;25342045;23;20002;-58
2023/10/20 15:43:46;;;;;;;24.20;7.13;;;12.50;99.90;;;;;;25341473;23;20006;-53
2023/10/20 15:53:48;;;;;;;19.45;7.40;;;12.60;99.90;;;;;;25340787;23;20021;-52
2023/10/20 16:03:51;;;;;;;14.55;6.93;;;12.70;99.90;;;;;;25340605;23;20050;-53
2023/10/20 16:13:53;;;;;;;11.18;3.75;;;12.70;99.90;;;;;;25340593;23;20002;-58
2023/10/20 16:23:55;;;;;;;12.32;3.80;;;12.50;99.90;;;;;;25340926;23;20068;-59
2023/10/20 16:33:57;;;;;;;14.55;5.90;;;12.20;99.90;;;;;;25340147;23;20441;-53
2023/10/20 16:43:59;;;;;;;17.25;7.00;;;12.20;99.90;;;;;;25340042;23;20013;-60
2023/10/20 16:54:01;;;;;;;413.85;20.55;;;12.30;99.90;;;;;;25339528;23;20021;-59
2023/10/20 17:04:03;;;;;;;1439.75;51.55;;;12.40;99.90;;;;;;25339417;23;20042;-59
2023/10/20 17:14:06;;;;;;;588.88;25.92;;;12.50;99.90;;;;;;25338677;23;20057;-53
2023/10/20 17:24:10;;;;;;;74.20;12.35;;;12.50;99.90;;;;;;25339008;23;20081;-50
2023/10/20 17:34:13;;;;;;;12.20;5.78;;;12.40;99.90;;;;;;25338773;23;20002;-53
2023/10/20 17:44:15;;;;;;;11.20;4.50;;;12.20;99.90;;;;;;25338422;23;20006;-47
2023/10/20 17:54:17;;;;;;;13.05;5.93;;;12.00;99.90;;;;;;25339324;23;20042;-59
2023/10/20 18:04:19;;;;;;;605.42;27.45;;;12.00;99.90;;;;;;25346321;23;20065;-51
2023/10/20 18:14:21;;;;;;;26.13;10.10;;;12.10;99.90;;;;;;25345739;23;20512;-59
2023/10/20 18:24:23;;;;;;;18.33;9.95;;;12.10;99.90;;;;;;25319102;23;20041;-58
2023/10/20 18:34:25;;;;;;;12.13;7.13;;;11.90;99.90;;;;;;25345364;23;20025;-53
2023/10/20 18:44:27;;;;;;;13.63;7.60;;;11.90;99.90;;;;;;25344449;23;20002;-59
2023/10/20 18:54:29;;;;;;;9.60;6.10;;;11.80;99.90;;;;;;25344328;23;20069;-52
2023/10/20 19:04:30;;;;;;;6.30;3.75;;;11.60;99.90;;;;;;25343731;23;20088;-59
2023/10/20 19:14:32;;;;;;;5.22;2.90;;;11.30;99.90;;;;;;25343417;23;20005;-53
2023/10/20 19:24:34;;;;;;;3.35;1.63;;;10.90;99.90;;;;;;25343098;23;20036;-51
2023/10/20 19:34:36;;;;;;;3.00;0.50;;;10.60;99.90;;;;;;25343127;23;20009;-59
2023/10/20 19:44:38;;;;;;;3.22;0.50;;;10.40;99.90;;;;;;25316539;23;20006;-49
2023/10/20 19:54:39;;;;;;;2.85;1.05;;;10.30;99.90;;;;;;25341879;23;20006;-52
2023/10/20 20:04:41;;;;;;;4.57;1.75;;;10.10;99.90;;;;;;25341209;23;20069;-53
2023/10/20 20:14:43;;;;;;;5.75;2.35;;;10.10;99.90;;;;;;25341063;23;20006;-59
2023/10/20 20:24:45;;;;;;;5.68;3.00;;;10.10;99.90;;;;;;25340478;23;20060;-59
2023/10/20 20:34:49;;;;;;;3.40;0.98;;;10.00;99.90;;;;;;25087722;23;20022;-49
2023/10/20 20:44:50;;;;;;;1.38;0.30;;;9.70;99.90;;;;;;25087703;23;20018;-59
2023/10/20 20:54:52;;;;;;;4.82;0.50;;;9.50;99.90;;;;;;25063297;23;20018;-50
2023/10/20 21:04:54;;;;;;;3.85;0.50;;;9.50;99.90;;;;;;25191026;23;20019;-59
2023/10/20 21:14:56;;;;;;;5.68;0.68;;;9.70;99.90;;;;;;25218424;23;20006;-51
2023/10/20 21:24:58;;;;;;;3.63;1.08;;;9.60;99.90;;;;;;25218335;23;20003;-51
2023/10/20 21:35:00;;;;;;;2.40;0.40;;;9.50;99.90;;;;;;25225384;23;20447;-51
2023/10/20 21:45:02;;;;;;;2.72;0.20;;;9.30;99.90;;;;;;25226722;23;20010;-53
2023/10/20 21:55:05;;;;;;;2.47;0.40;;;9.30;99.90;;;;;;25258225;23;20065;-60
2023/10/20 22:05:07;;;;;;;3.05;0.30;;;9.10;99.90;;;;;;25346501;23;20010;-60
2023/10/20 22:15:09;;;;;;;2.28;0.57;;;9.20;99.90;;;;;;25320233;23;20061;-60
2023/10/20 22:25:10;;;;;;;6.25;0.40;;;9.20;99.90;;;;;;25345804;23;20512;-60
2023/10/20 22:35:12;;;;;;;3.90;0.65;;;9.10;99.90;;;;;;25347068;23;20029;-53
2023/10/20 22:45:14;;;;;;;5.97;1.42;;;9.20;99.90;;;;;;25344444;23;20473;-60
2023/10/20 22:55:16;;;;;;;7.82;1.95;;;9.00;99.90;;;;;;25344982;23;20021;-52
2023/10/20 23:05:19;;;;;;;6.47;2.67;;;8.80;99.90;;;;;;25344609;23;20021;-60
2023/10/20 23:15:21;;;;;;;8.70;3.10;;;8.70;99.90;;;;;;25343708;23;20002;-60
2023/10/20 23:25:23;;;;;;;4.57;1.35;;;8.60;99.90;;;;;;25343906;23;20057;-59
2023/10/20 23:35:25;;;;;;;3.58;0.70;;;8.40;99.90;;;;;;25343812;23;20006;-50
2023/10/20 23:45:27;;;;;;;3.90;0.55;;;8.40;99.90;;;;;;25342677;23;20064;-60
2023/10/20 23:55:29;;;;;;;5.35;0.60;;;8.30;99.90;;;;;;25316223;23;20078;-60
